createdAt,value
2018-09-19T00:02:02.855Z,8.17
2018-09-19T00:04:31.108Z,15.00
2018-09-19T00:06:59.213Z,10.33
2018-09-19T00:09:27.239Z,8.77
2018-09-19T00:11:55.310Z,10.23
2018-09-19T00:14:23.355Z,11.17
2018-09-19T00:16:51.393Z,8.57
2018-09-19T00:19:19.475Z,9.07
2018-09-19T00:21:47.570Z,16.00
2018-09-19T00:24:16.175Z,9.30
2018-09-19T00:26:44.215Z,9.77
2018-09-19T00:29:12.271Z,12.33
2018-09-19T00:31:40.323Z,9.17
2018-09-19T00:34:08.561Z,8.63
2018-09-19T00:36:36.572Z,9.70
2018-09-19T00:39:06.996Z,8.53
2018-09-19T00:41:35.065Z,10.37
2018-09-19T00:44:03.132Z,10.53
2018-09-19T00:46:31.163Z,11.10
2018-09-19T00:48:59.248Z,7.73
2018-09-19T00:51:27.296Z,8.40
2018-09-19T00:53:55.357Z,10.10
2018-09-19T00:56:23.424Z,5.73
2018-09-19T00:58:51.507Z,10.13
2018-09-19T01:01:19.538Z,10.63
2018-09-19T01:03:47.613Z,8.17
2018-09-19T01:06:15.738Z,7.93
2018-09-19T01:08:43.782Z,9.97
2018-09-19T01:11:11.858Z,8.50
2018-09-19T01:13:40.082Z,7.37
2018-09-19T01:16:08.096Z,9.10
2018-09-19T01:18:36.263Z,6.80
2018-09-19T01:21:04.557Z,9.00
2018-09-19T01:23:32.612Z,9.45
2018-09-19T01:26:00.659Z,9.27
2018-09-19T01:28:28.707Z,6.43
2018-09-19T01:30:56.748Z,6.53
2018-09-19T01:33:24.795Z,4.87
2018-09-19T01:35:53.020Z,6.30
2018-09-19T01:38:21.074Z,8.75
2018-09-19T01:40:49.251Z,7.90
2018-09-19T01:43:17.384Z,6.72
2018-09-19T01:45:45.512Z,8.03
2018-09-19T01:48:13.581Z,7.40
2018-09-19T01:50:41.656Z,6.00
2018-09-19T01:53:09.715Z,9.23
2018-09-19T01:55:37.752Z,5.17
2018-09-19T01:58:05.841Z,5.90
2018-09-19T02:00:33.913Z,7.07
2018-09-19T02:03:02.020Z,6.03
2018-09-19T02:05:30.097Z,6.63
2018-09-19T02:07:58.168Z,8.67
2018-09-19T02:10:26.231Z,8.37
2018-09-19T02:12:54.300Z,7.50
2018-09-19T02:15:28.641Z,4.92
2018-09-19T02:17:56.840Z,7.20
2018-09-19T02:20:24.956Z,6.83
2018-09-19T02:22:53.043Z,7.10
2018-09-19T02:25:21.047Z,5.83
2018-09-19T02:27:49.459Z,6.10
2018-09-19T02:30:17.532Z,8.28
2018-09-19T02:32:45.575Z,5.37
2018-09-19T02:35:13.698Z,9.83
2018-09-19T02:37:41.717Z,6.03
2018-09-19T02:40:09.800Z,7.53
2018-09-19T02:42:37.807Z,10.53
2018-09-19T02:45:05.883Z,6.23
2018-09-19T02:47:34.054Z,8.50
2018-09-19T02:50:02.090Z,5.50
2018-09-19T02:52:30.180Z,6.10
2018-09-19T02:54:58.220Z,9.07
2018-09-19T02:57:26.314Z,8.47
2018-09-19T02:59:54.410Z,7.47
2018-09-19T03:02:22.392Z,6.28
2018-09-19T03:04:50.433Z,5.93
2018-09-19T03:07:18.472Z,5.20
2018-09-19T03:09:46.677Z,5.73
2018-09-19T03:12:14.732Z,5.78
2018-09-19T03:14:42.815Z,8.23
2018-09-19T03:17:10.910Z,6.57
2018-09-19T03:19:39.161Z,8.67
2018-09-19T03:22:07.228Z,6.27
2018-09-19T03:24:35.280Z,7.77
2018-09-19T03:27:03.338Z,6.67
2018-09-19T03:29:31.598Z,5.77
2018-09-19T03:31:59.591Z,7.03
2018-09-19T03:34:27.665Z,9.17
2018-09-19T03:36:56.052Z,7.70
2018-09-19T03:39:24.139Z,6.33
2018-09-19T03:41:52.184Z,9.27
2018-09-19T03:44:20.228Z,10.00
2018-09-19T03:46:48.266Z,8.57
2018-09-19T03:49:16.909Z,7.57
2018-09-19T03:51:44.969Z,6.07
2018-09-19T03:54:13.004Z,8.20
2018-09-19T03:56:41.045Z,9.53
2018-09-19T03:59:09.331Z,5.83
2018-09-19T04:01:37.368Z,6.57
2018-09-19T04:04:05.545Z,6.17
2018-09-19T04:06:33.573Z,5.97
2018-09-19T04:09:01.632Z,7.85
2018-09-19T04:11:29.679Z,7.50
2018-09-19T04:13:57.732Z,9.63
2018-09-19T04:16:25.771Z,7.63
2018-09-19T04:18:54.178Z,6.83
2018-09-19T04:21:22.224Z,7.70
2018-09-19T04:23:50.270Z,6.60
2018-09-19T04:26:18.363Z,6.33
2018-09-19T04:28:46.409Z,8.27
2018-09-19T04:31:14.544Z,6.77
2018-09-19T04:33:42.864Z,8.05
2018-09-19T04:36:11.022Z,9.85
2018-09-19T04:38:39.071Z,6.73
2018-09-19T04:41:07.155Z,6.53
2018-09-19T04:43:35.208Z,8.00
2018-09-19T04:46:03.266Z,7.53
2018-09-19T04:48:31.359Z,8.07
2018-09-19T04:50:59.411Z,9.47
2018-09-19T04:53:27.451Z,7.33
2018-09-19T04:55:55.576Z,9.57
2018-09-19T04:58:23.813Z,7.00
2018-09-19T05:00:51.904Z,8.27
2018-09-19T05:03:19.973Z,6.83
2018-09-19T05:05:48.096Z,8.73
2018-09-19T05:08:16.097Z,7.87
2018-09-19T05:10:44.136Z,8.63
2018-09-19T05:13:12.381Z,9.25
2018-09-19T05:15:40.428Z,8.83
2018-09-19T05:18:08.480Z,10.90
2018-09-19T05:20:36.528Z,11.63
2018-09-19T05:23:05.024Z,9.73
2018-09-19T05:25:33.331Z,13.53
2018-09-19T05:28:01.381Z,11.43
2018-09-19T05:30:29.560Z,9.83
2018-09-19T05:32:57.780Z,12.83
2018-09-19T05:35:25.948Z,8.60
2018-09-19T05:37:54.325Z,11.33
2018-09-19T05:40:22.378Z,9.17
2018-09-19T05:42:50.442Z,12.23
2018-09-19T05:45:18.502Z,12.53
2018-09-19T05:47:46.936Z,12.97
2018-09-19T05:50:14.999Z,7.80
2018-09-19T05:52:43.133Z,14.70
2018-09-19T05:55:11.228Z,11.13
2018-09-19T05:57:39.279Z,10.23
2018-09-19T06:00:07.333Z,11.23
2018-09-19T06:02:35.371Z,16.13
2018-09-19T06:05:03.482Z,12.27
2018-09-19T06:07:31.783Z,13.13
2018-09-19T06:09:59.847Z,13.43
2018-09-19T06:12:28.020Z,12.30
2018-09-19T06:14:56.101Z,16.07
2018-09-19T06:17:24.176Z,12.40
2018-09-19T06:19:52.271Z,10.97
2018-09-19T06:22:22.454Z,15.13
2018-09-19T06:25:13.786Z,15.47
2018-09-19T06:27:41.844Z,14.37
2018-09-19T06:30:09.877Z,12.50
2018-09-19T06:32:37.964Z,12.63
2018-09-19T06:35:06.108Z,8.83
2018-09-19T06:37:34.134Z,12.27
2018-09-19T06:40:02.391Z,11.27
2018-09-19T06:42:30.347Z,17.07
2018-09-19T06:44:58.390Z,12.53
2018-09-19T06:47:26.802Z,13.63
2018-09-19T06:50:01.422Z,12.27
2018-09-19T06:52:29.640Z,14.07
2018-09-19T06:55:13.942Z,15.70
2018-09-19T06:58:01.917Z,14.43
2018-09-19T07:00:30.083Z,12.57
2018-09-19T07:02:58.117Z,14.33
2018-09-19T07:05:26.143Z,13.07
2018-09-19T07:07:54.173Z,18.07
2018-09-19T07:10:23.467Z,13.70
2018-09-19T07:12:51.670Z,12.80
2018-09-19T07:15:19.741Z,19.33
2018-09-19T07:17:47.769Z,16.70
2018-09-19T07:20:22.527Z,15.93
2018-09-19T07:22:51.384Z,17.97
2018-09-19T07:25:35.938Z,15.72
2018-09-19T07:28:11.227Z,16.00
2018-09-19T07:30:54.007Z,15.73
2018-09-19T07:33:21.996Z,14.63
2018-09-19T07:35:50.065Z,16.40
2018-09-19T07:38:18.145Z,18.03
2018-09-19T07:40:46.168Z,18.47
2018-09-19T07:43:14.283Z,28.07
2018-09-19T07:45:57.584Z,20.70
2018-09-19T07:48:25.785Z,14.77
2018-09-19T07:50:53.809Z,15.07
2018-09-19T07:53:32.887Z,16.43
2018-09-19T07:56:06.844Z,16.37
2018-09-19T07:58:34.868Z,14.43
2018-09-19T08:01:25.333Z,15.23
2018-09-19T08:04:10.086Z,12.43
2018-09-19T08:06:38.141Z,14.47
2018-09-19T08:09:07.304Z,13.57
2018-09-19T08:11:35.332Z,12.93
2018-09-19T08:14:03.372Z,15.43
2018-09-19T08:16:31.437Z,16.17
2018-09-19T08:18:59.472Z,17.47
2018-09-19T08:21:27.517Z,15.93
2018-09-19T08:23:55.559Z,17.20
2018-09-19T08:26:23.684Z,13.63
2018-09-19T08:28:51.751Z,15.40
2018-09-19T08:31:19.761Z,14.20
2018-09-19T08:33:47.804Z,14.17
2018-09-19T08:36:16.000Z,16.30
2018-09-19T08:38:44.357Z,16.53
2018-09-19T08:41:12.444Z,12.60
2018-09-19T08:43:40.561Z,15.17
2018-09-19T08:46:08.748Z,14.60
2018-09-19T08:48:36.816Z,13.40
2018-09-19T08:51:05.055Z,16.03
2018-09-19T08:53:33.375Z,14.50
2018-09-19T08:56:01.392Z,12.43
2018-09-19T08:58:29.816Z,15.33
2018-09-19T09:00:57.849Z,13.00
2018-09-19T09:03:26.013Z,13.83
2018-09-19T09:05:54.081Z,14.17
2018-09-19T09:08:22.149Z,16.13
2018-09-19T09:10:50.218Z,11.77
2018-09-19T09:13:18.278Z,9.53
2018-09-19T09:15:46.308Z,12.07
2018-09-19T09:18:14.331Z,15.93
2018-09-19T09:20:42.382Z,13.13
2018-09-19T09:23:10.421Z,10.00
2018-09-19T09:25:38.626Z,11.83
2018-09-19T09:28:06.815Z,10.33
2018-09-19T09:30:35.164Z,16.25
2018-09-19T09:33:03.507Z,9.50
2018-09-19T09:35:31.545Z,12.13
2018-09-19T09:37:59.564Z,14.77
2018-09-19T09:40:27.717Z,11.97
2018-09-19T09:42:55.669Z,10.07
2018-09-19T09:45:23.712Z,12.40
2018-09-19T09:47:51.749Z,12.50
2018-09-19T09:50:19.857Z,13.47
2018-09-19T09:52:48.042Z,10.80
2018-09-19T09:55:16.105Z,14.27
2018-09-19T09:57:44.179Z,11.50
2018-09-19T10:00:12.214Z,11.70
2018-09-19T10:02:40.256Z,18.37
2018-09-19T10:05:08.284Z,16.13
2018-09-19T10:07:36.321Z,11.00
2018-09-19T10:10:04.363Z,12.80
2018-09-19T10:12:32.417Z,11.37
2018-09-19T10:15:00.497Z,12.30
2018-09-19T10:17:28.564Z,11.37
2018-09-19T10:19:56.783Z,10.17
2018-09-19T10:22:24.825Z,12.80
2018-09-19T10:24:52.934Z,10.13
2018-09-19T10:27:20.968Z,11.93
2018-09-19T10:29:49.105Z,8.97
2018-09-19T10:32:17.357Z,8.80
2018-09-19T10:34:45.418Z,10.60
2018-09-19T10:37:13.460Z,13.40
2018-09-19T10:39:41.520Z,12.03
2018-09-19T10:42:09.662Z,8.90
2018-09-19T10:44:37.833Z,11.13
2018-09-19T10:47:05.997Z,9.90
2018-09-19T10:49:34.041Z,12.70
2018-09-19T10:52:02.022Z,9.33
2018-09-19T10:54:30.198Z,11.30
2018-09-19T10:56:58.484Z,10.43
2018-09-19T10:59:26.510Z,11.23
2018-09-19T11:01:54.589Z,8.63
2018-09-19T11:04:22.649Z,8.37
2018-09-19T11:06:50.828Z,11.27
2018-09-19T11:09:18.883Z,13.37
2018-09-19T11:11:46.914Z,14.50
2018-09-19T11:14:14.942Z,11.85
2018-09-19T11:16:42.990Z,9.70
2018-09-19T11:19:11.037Z,12.55
2018-09-19T11:21:39.081Z,8.70
2018-09-19T11:24:07.876Z,12.50
2018-09-19T11:26:35.925Z,8.43
2018-09-19T11:29:04.844Z,7.83
2018-09-19T11:31:32.881Z,10.57
2018-09-19T11:34:00.969Z,9.83
2018-09-19T11:36:28.999Z,8.97
2018-09-19T11:38:57.059Z,10.53
2018-09-19T11:41:25.080Z,10.70
2018-09-19T11:43:53.116Z,7.03
2018-09-19T11:46:21.180Z,8.37
2018-09-19T11:48:49.301Z,10.33
2018-09-19T11:51:17.273Z,7.15
2018-09-19T11:53:45.320Z,11.33
2018-09-19T11:56:13.363Z,9.10
2018-09-19T11:58:41.389Z,9.57
2018-09-19T12:01:09.451Z,7.15
2018-09-19T12:03:37.552Z,7.30
2018-09-19T12:06:05.595Z,8.80
2018-09-19T12:08:33.656Z,8.57
2018-09-19T12:11:01.697Z,12.53
2018-09-19T12:13:29.727Z,5.70
2018-09-19T12:15:57.792Z,9.63
2018-09-19T12:18:25.961Z,8.13
2018-09-19T12:20:54.012Z,8.60
2018-09-19T12:23:22.052Z,10.38
2018-09-19T12:25:50.120Z,6.87
2018-09-19T12:28:18.226Z,8.37
2018-09-19T12:30:46.265Z,7.50
2018-09-19T12:33:14.353Z,6.97
2018-09-19T12:35:42.364Z,7.23
2018-09-19T12:38:10.425Z,10.10
2018-09-19T12:40:38.514Z,10.73
2018-09-19T12:43:06.577Z,6.27
2018-09-19T12:45:34.688Z,6.90
2018-09-19T12:48:02.757Z,6.10
2018-09-19T12:50:30.834Z,8.73
2018-09-19T12:52:58.877Z,8.37
2018-09-19T12:55:26.920Z,7.47
2018-09-19T12:57:54.949Z,4.47
2018-09-19T13:00:22.994Z,8.50
2018-09-19T13:02:51.116Z,7.23
2018-09-19T13:05:19.262Z,14.30
2018-09-19T13:07:47.286Z,9.00
2018-09-19T13:10:15.334Z,7.83
2018-09-19T13:12:43.389Z,7.57
2018-09-19T13:15:11.415Z,7.33
2018-09-19T13:17:39.476Z,8.17
2018-09-19T13:20:07.572Z,10.87
2018-09-19T13:22:35.633Z,8.97
2018-09-19T13:25:03.893Z,7.03
2018-09-19T13:27:31.937Z,5.27
2018-09-19T13:30:00.049Z,8.40
2018-09-19T13:32:28.104Z,8.47
2018-09-19T13:34:56.180Z,5.70
2018-09-19T13:37:24.187Z,7.10
2018-09-19T13:39:52.256Z,7.63
2018-09-19T13:42:20.292Z,9.15
2018-09-19T13:44:48.334Z,8.70
2018-09-19T13:47:16.433Z,8.35
2018-09-19T13:49:47.985Z,7.50
2018-09-19T13:52:16.029Z,7.57
2018-09-19T13:54:44.068Z,6.77
2018-09-19T13:57:18.692Z,6.83
2018-09-19T13:59:46.741Z,7.90
2018-09-19T14:02:15.152Z,7.43
2018-09-19T14:04:43.177Z,8.00
2018-09-19T14:07:11.237Z,5.12
2018-09-19T14:09:39.312Z,7.20
2018-09-19T14:12:07.625Z,8.77
2018-09-19T14:14:35.628Z,7.50
2018-09-19T14:17:04.069Z,12.30
2018-09-19T14:19:32.113Z,7.33
2018-09-19T14:22:00.158Z,6.07
2018-09-19T14:24:28.212Z,7.70
2018-09-19T14:26:56.263Z,11.27
2018-09-19T14:29:24.321Z,4.97
2018-09-19T14:31:52.387Z,7.07
2018-09-19T14:34:20.488Z,7.97
2018-09-19T14:36:48.624Z,6.73
2018-09-19T14:39:16.657Z,7.03
2018-09-19T14:41:44.705Z,8.13
2018-09-19T14:44:12.738Z,8.60
2018-09-19T14:46:40.790Z,5.90
2018-09-19T14:49:08.817Z,8.40
2018-09-19T14:51:36.847Z,7.70
2018-09-19T14:54:05.070Z,10.27
2018-09-19T14:56:33.080Z,7.90
2018-09-19T14:59:01.147Z,8.87
2018-09-19T15:01:29.181Z,8.20
2018-09-19T15:03:57.213Z,7.20
2018-09-19T15:06:25.268Z,5.03
2018-09-19T15:08:53.325Z,7.07
2018-09-19T15:11:21.383Z,8.23
2018-09-19T15:13:49.448Z,5.90
2018-09-19T15:16:17.491Z,6.20
2018-09-19T15:18:45.561Z,8.97
2018-09-19T15:21:13.602Z,4.47
2018-09-19T15:23:41.653Z,9.00
2018-09-19T15:26:09.702Z,6.55
2018-09-19T15:28:37.793Z,6.80
2018-09-19T15:31:05.784Z,8.73
2018-09-19T15:33:33.900Z,8.73
2018-09-19T15:36:01.963Z,6.80
2018-09-19T15:38:30.010Z,6.63
2018-09-19T15:40:58.033Z,6.23
2018-09-19T15:43:26.109Z,7.37
2018-09-19T15:45:54.175Z,8.50
2018-09-19T15:48:22.413Z,6.00
2018-09-19T15:50:50.475Z,5.60
2018-09-19T15:53:18.518Z,7.78
2018-09-19T15:55:46.561Z,6.17
2018-09-19T15:58:14.595Z,6.17
2018-09-19T16:00:42.636Z,5.67
2018-09-19T16:03:10.734Z,8.33
2018-09-19T16:05:38.822Z,8.37
2018-09-19T16:08:06.843Z,5.67
2018-09-19T16:10:34.893Z,5.23
2018-09-19T16:13:02.924Z,9.23
2018-09-19T16:15:30.962Z,8.13
2018-09-19T16:17:59.249Z,8.90
2018-09-19T16:20:27.297Z,7.57
2018-09-19T16:22:55.774Z,8.70
2018-09-19T16:25:23.806Z,6.53
2018-09-19T16:27:51.829Z,10.03
2018-09-19T16:30:19.920Z,8.13
2018-09-19T16:32:47.965Z,8.33
2018-09-19T16:35:16.036Z,8.13
2018-09-19T16:37:44.069Z,12.07
2018-09-19T16:40:12.137Z,8.13
2018-09-19T16:42:40.198Z,9.63
2018-09-19T16:45:08.248Z,10.17
2018-09-19T16:47:36.295Z,8.97
2018-09-19T16:50:04.807Z,10.63
2018-09-19T16:52:32.897Z,7.90
2018-09-19T16:55:01.035Z,9.03
2018-09-19T16:57:29.093Z,10.87
2018-09-19T16:59:57.175Z,8.80
2018-09-19T17:02:25.232Z,8.83
2018-09-19T17:04:53.297Z,6.37
2018-09-19T17:07:21.383Z,9.65
2018-09-19T17:09:49.415Z,9.43
2018-09-19T17:12:17.471Z,11.67
2018-09-19T17:14:45.515Z,10.13
2018-09-19T17:17:13.575Z,9.27
2018-09-19T17:19:41.621Z,10.73
2018-09-19T17:22:09.765Z,10.90
2018-09-19T17:24:37.810Z,9.63
2018-09-19T17:27:05.844Z,10.37
2018-09-19T17:29:33.875Z,8.13
2018-09-19T17:32:01.921Z,9.10
2018-09-19T17:34:30.005Z,7.67
2018-09-19T17:36:58.046Z,11.37
2018-09-19T17:39:26.098Z,12.63
2018-09-19T17:41:54.150Z,9.83
2018-09-19T17:44:22.170Z,7.70
2018-09-19T17:46:50.212Z,9.03
2018-09-19T17:49:18.253Z,9.40
2018-09-19T17:51:46.317Z,11.23
2018-09-19T17:54:14.372Z,10.10
2018-09-19T17:56:42.401Z,12.33
2018-09-19T17:59:10.448Z,14.43
2018-09-19T18:01:38.568Z,8.50
2018-09-19T18:04:06.882Z,7.23
2018-09-19T18:06:34.996Z,6.40
2018-09-19T18:09:03.280Z,14.20
2018-09-19T18:11:31.316Z,11.23
2018-09-19T18:13:59.409Z,9.47
2018-09-19T18:16:27.436Z,8.30
2018-09-19T18:18:55.504Z,6.90
2018-09-19T18:21:23.570Z,10.80
2018-09-19T18:23:52.173Z,10.73
2018-09-19T18:26:20.232Z,9.13
2018-09-19T18:28:48.284Z,9.87
2018-09-19T18:31:16.363Z,8.30
2018-09-19T18:33:44.404Z,8.20
2018-09-19T18:36:12.461Z,8.45
2018-09-19T18:38:40.553Z,12.03
2018-09-19T18:41:08.609Z,6.03
2018-09-19T18:43:36.664Z,12.50
2018-09-19T18:46:04.928Z,9.37
2018-09-19T18:48:32.970Z,9.77
2018-09-19T18:51:01.428Z,11.50
2018-09-19T18:53:29.496Z,9.07
2018-09-19T18:55:57.535Z,11.83
2018-09-19T18:58:25.577Z,9.87
2018-09-19T19:00:53.622Z,8.03
2018-09-19T19:03:21.653Z,11.43
2018-09-19T19:05:49.672Z,7.17
2018-09-19T19:08:17.720Z,9.80
2018-09-19T19:10:45.773Z,10.87
2018-09-19T19:13:13.836Z,8.73
2018-09-19T19:15:42.319Z,7.70
2018-09-19T19:18:10.359Z,7.17
2018-09-19T19:20:38.576Z,9.00
2018-09-19T19:23:06.864Z,9.37
2018-09-19T19:25:34.956Z,6.43
2018-09-19T19:28:03.005Z,7.27
2018-09-19T19:30:31.373Z,9.00
2018-09-19T19:32:59.273Z,7.93
2018-09-19T19:35:27.291Z,8.43
2018-09-19T19:37:55.349Z,5.50
2018-09-19T19:40:23.336Z,8.23
2018-09-19T19:42:51.416Z,7.50
2018-09-19T19:45:19.429Z,8.93
2018-09-19T19:47:47.445Z,9.87
2018-09-19T19:50:15.543Z,8.67
2018-09-19T19:52:43.572Z,10.47
2018-09-19T19:55:11.632Z,7.03
2018-09-19T19:57:39.676Z,11.13
2018-09-19T20:00:07.700Z,6.73
2018-09-19T20:02:35.813Z,9.50
2018-09-19T20:05:04.932Z,6.92
2018-09-19T20:07:32.956Z,6.87
2018-09-19T20:10:00.998Z,9.63
2018-09-19T20:12:29.073Z,6.70
2018-09-19T20:14:57.050Z,9.47
2018-09-19T20:17:25.122Z,9.40
2018-09-19T20:19:53.298Z,7.33
2018-09-19T20:22:21.317Z,7.70
2018-09-19T20:24:49.364Z,9.00
2018-09-19T20:27:17.437Z,6.00
2018-09-19T20:29:45.463Z,9.07
2018-09-19T20:32:13.503Z,8.25
2018-09-19T20:34:41.512Z,8.00
2018-09-19T20:37:09.547Z,8.13
2018-09-19T20:39:37.588Z,11.07
2018-09-19T20:42:05.633Z,7.80
2018-09-19T20:44:33.700Z,6.60
2018-09-19T20:47:01.778Z,8.87
2018-09-19T20:49:29.745Z,8.50
2018-09-19T20:51:57.771Z,8.07
2018-09-19T20:54:25.787Z,10.37
2018-09-19T20:56:53.789Z,9.10
2018-09-19T20:59:21.824Z,7.70
2018-09-19T21:01:49.872Z,7.97
2018-09-19T21:04:17.939Z,6.87
2018-09-19T21:06:45.941Z,7.53
2018-09-19T21:09:13.972Z,9.60
2018-09-19T21:11:42.013Z,8.23
2018-09-19T21:14:10.043Z,7.80
2018-09-19T21:16:38.065Z,9.27
2018-09-19T21:19:06.089Z,8.53
2018-09-19T21:21:34.121Z,8.53
2018-09-19T21:24:02.150Z,12.30
2018-09-19T21:26:30.170Z,7.95
2018-09-19T21:28:58.193Z,8.73
2018-09-19T21:31:26.239Z,8.80
2018-09-19T21:33:54.383Z,8.67
2018-09-19T21:36:22.501Z,8.43
2018-09-19T21:38:50.611Z,7.43
2018-09-19T21:41:18.684Z,9.08
2018-09-19T21:43:46.735Z,5.90
2018-09-19T21:46:15.067Z,8.67
2018-09-19T21:48:43.117Z,9.53
2018-09-19T21:51:11.172Z,8.80
2018-09-19T21:53:39.245Z,10.07
2018-09-19T21:56:07.329Z,8.43
2018-09-19T21:58:35.463Z,9.50
2018-09-19T22:01:10.365Z,9.10
2018-09-19T22:03:40.073Z,11.07
2018-09-19T22:06:08.413Z,10.60
2018-09-19T22:08:37.407Z,9.70
2018-09-19T22:11:06.041Z,6.07
2018-09-19T22:13:34.150Z,9.77
2018-09-19T22:16:02.185Z,11.10
2018-09-19T22:18:30.332Z,10.00
2018-09-19T22:20:58.395Z,12.30
2018-09-19T22:23:26.480Z,11.15
2018-09-19T22:25:54.532Z,7.60
2018-09-19T22:28:22.600Z,8.63
2018-09-19T22:30:51.069Z,11.03
2018-09-19T22:33:19.110Z,10.35
2018-09-19T22:35:47.206Z,10.23
2018-09-19T22:38:21.898Z,9.27
2018-09-19T22:40:50.064Z,11.10
2018-09-19T22:43:18.190Z,7.90
2018-09-19T22:45:46.409Z,6.13
2018-09-19T22:48:14.583Z,8.43
2018-09-19T22:50:42.651Z,7.57
2018-09-19T22:53:10.852Z,7.77
2018-09-19T22:55:38.953Z,9.03
2018-09-19T22:58:07.063Z,8.10
2018-09-19T23:00:35.093Z,9.77
2018-09-19T23:03:03.186Z,6.37
2018-09-19T23:05:31.300Z,11.30
2018-09-19T23:07:59.383Z,9.57
2018-09-19T23:10:27.445Z,8.20
2018-09-19T23:12:55.498Z,9.77
2018-09-19T23:15:23.553Z,10.20
2018-09-19T23:17:51.589Z,10.43
2018-09-19T23:20:19.660Z,6.80
2018-09-19T23:22:47.716Z,9.17
2018-09-19T23:25:15.754Z,8.87
2018-09-19T23:27:43.840Z,7.60
2018-09-19T23:30:11.905Z,8.63
2018-09-19T23:32:39.992Z,9.10
2018-09-19T23:35:08.040Z,8.87
2018-09-19T23:37:36.105Z,9.07
2018-09-19T23:40:05.132Z,11.05
2018-09-19T23:42:33.205Z,8.50
2018-09-19T23:45:01.421Z,7.00
2018-09-19T23:47:29.527Z,9.90
2018-09-19T23:49:57.549Z,10.40
2018-09-19T23:52:25.628Z,7.83
2018-09-19T23:54:53.661Z,13.47
2018-09-19T23:57:21.668Z,9.08
2018-09-19T23:59:49.892Z,10.27
